createdAt,value
2023-01-26T00:00:16.214Z,6.28
2023-01-26T00:02:44.987Z,6.93
2023-01-26T00:05:13.703Z,7.32
2023-01-26T00:07:45.438Z,7.32
2023-01-26T00:10:15.308Z,7.18
2023-01-26T00:12:45.356Z,6.80
2023-01-26T00:15:13.979Z,6.75
2023-01-26T00:17:42.613Z,6.75
2023-01-26T00:20:13.143Z,6.40
2023-01-26T00:22:42.207Z,7.20
2023-01-26T00:25:11.378Z,6.88
2023-01-26T00:27:40.034Z,6.65
2023-01-26T00:30:11.996Z,7.05
2023-01-26T00:32:41.038Z,7.10
2023-01-26T00:35:10.624Z,7.78
2023-01-26T00:37:39.388Z,6.90
2023-01-26T00:40:09.413Z,6.90
2023-01-26T00:42:40.060Z,6.47
2023-01-26T00:45:11.117Z,7.00
2023-01-26T00:47:39.787Z,6.47
2023-01-26T00:50:10.437Z,6.35
2023-01-26T00:52:39.499Z,6.82
2023-01-26T00:55:09.089Z,6.43
2023-01-26T00:57:37.621Z,6.65
2023-01-26T01:00:07.993Z,6.63
2023-01-26T01:02:38.180Z,6.28
2023-01-26T01:05:07.480Z,6.65
2023-01-26T01:07:36.044Z,6.63
2023-01-26T01:10:05.224Z,7.25
2023-01-26T01:12:33.746Z,6.75
2023-01-26T01:15:02.282Z,6.82
2023-01-26T01:17:30.939Z,6.55
2023-01-26T01:20:00.865Z,6.40
2023-01-26T01:22:29.461Z,6.63
2023-01-26T01:24:58.079Z,6.28
2023-01-26T01:27:26.781Z,6.32
2023-01-26T01:29:55.374Z,6.40
2023-01-26T01:32:23.975Z,6.80
2023-01-26T01:34:52.495Z,6.28
2023-01-26T01:37:22.427Z,6.45
2023-01-26T01:39:51.033Z,6.40
2023-01-26T01:42:19.637Z,6.53
2023-01-26T01:44:48.188Z,6.28
2023-01-26T01:47:19.715Z,6.47
2023-01-26T01:49:50.266Z,6.47
2023-01-26T01:52:24.725Z,6.25
2023-01-26T01:54:57.813Z,6.70
2023-01-26T01:57:29.798Z,6.32
2023-01-26T02:00:00.878Z,6.68
2023-01-26T02:02:30.170Z,6.22
2023-01-26T02:05:00.739Z,6.95
2023-01-26T02:07:31.688Z,6.05
2023-01-26T02:10:17.765Z,6.72
2023-01-26T02:12:46.622Z,6.15
2023-01-26T02:15:15.472Z,7.18
2023-01-26T02:17:44.084Z,6.32
2023-01-26T02:20:17.638Z,6.90
2023-01-26T02:22:53.466Z,7.32
2023-01-26T02:25:28.717Z,6.65
2023-01-26T02:27:59.877Z,6.80
2023-01-26T02:30:28.513Z,6.80
2023-01-26T02:32:57.258Z,7.00
2023-01-26T02:35:25.832Z,6.50
2023-01-26T02:37:54.575Z,6.43
2023-01-26T02:40:30.717Z,6.47
2023-01-26T02:42:59.807Z,6.70
2023-01-26T02:45:28.354Z,6.68
2023-01-26T02:47:58.278Z,6.43
2023-01-26T02:50:25.868Z,7.20
2023-01-26T02:52:54.459Z,6.97
2023-01-26T02:55:25.595Z,6.38
2023-01-26T02:57:56.012Z,6.95
2023-01-26T03:00:27.381Z,6.85
2023-01-26T03:02:58.201Z,7.28
2023-01-26T03:05:27.988Z,6.20
2023-01-26T03:07:56.930Z,6.95
2023-01-26T03:10:27.163Z,7.50
2023-01-26T03:12:56.008Z,7.10
2023-01-26T03:15:52.579Z,7.05
2023-01-26T03:18:39.967Z,6.38
2023-01-26T03:21:31.091Z,6.55
2023-01-26T03:24:16.981Z,6.88
2023-01-26T03:27:03.126Z,6.68
2023-01-26T03:29:32.107Z,6.30
2023-01-26T03:32:02.175Z,6.68
2023-01-26T03:34:30.759Z,7.18
2023-01-26T03:36:59.476Z,6.80
2023-01-26T03:39:45.633Z,7.72
2023-01-26T03:42:31.752Z,6.53
2023-01-26T03:45:17.856Z,7.50
2023-01-26T03:48:05.326Z,6.57
2023-01-26T03:50:51.681Z,6.50
2023-01-26T03:53:38.789Z,6.70
2023-01-26T03:56:22.217Z,6.65
2023-01-26T03:58:52.707Z,6.55
2023-01-26T04:01:21.737Z,6.57
2023-01-26T04:04:09.645Z,6.70
2023-01-26T04:06:56.566Z,6.90
2023-01-26T04:09:25.475Z,7.15
2023-01-26T04:11:54.124Z,6.45
2023-01-26T04:14:49.797Z,6.57
2023-01-26T04:17:36.661Z,6.97
2023-01-26T04:20:25.553Z,6.75
2023-01-26T04:22:54.164Z,6.47
2023-01-26T04:25:23.420Z,6.90
2023-01-26T04:27:51.972Z,7.07
2023-01-26T04:30:20.913Z,6.70
2023-01-26T04:32:50.323Z,7.22
2023-01-26T04:35:20.288Z,6.75
2023-01-26T04:37:49.658Z,8.07
2023-01-26T04:40:18.409Z,6.68
2023-01-26T04:42:46.926Z,6.80
2023-01-26T04:45:15.570Z,6.70
2023-01-26T04:47:44.108Z,6.78
2023-01-26T04:50:13.378Z,7.15
2023-01-26T04:52:43.796Z,6.32
2023-01-26T04:55:12.299Z,6.85
2023-01-26T04:57:40.875Z,6.65
2023-01-26T05:00:12.292Z,6.68
2023-01-26T05:02:41.437Z,6.90
2023-01-26T05:05:11.036Z,6.50
2023-01-26T05:07:39.626Z,7.00
2023-01-26T05:10:14.576Z,6.35
2023-01-26T05:12:44.213Z,6.60
2023-01-26T05:15:13.065Z,7.22
2023-01-26T05:17:41.569Z,7.22
2023-01-26T05:20:13.013Z,6.90
2023-01-26T05:22:41.848Z,6.55
2023-01-26T05:25:12.150Z,6.75
2023-01-26T05:27:40.670Z,6.65
2023-01-26T05:30:14.374Z,6.22
2023-01-26T05:32:43.542Z,7.18
2023-01-26T05:35:12.246Z,6.50
2023-01-26T05:37:42.421Z,6.53
2023-01-26T05:40:14.129Z,7.30
2023-01-26T05:42:44.369Z,6.75
2023-01-26T05:45:13.245Z,6.63
2023-01-26T05:47:43.082Z,6.93
2023-01-26T05:50:13.018Z,7.28
2023-01-26T05:52:41.802Z,7.07
2023-01-26T05:55:12.274Z,6.97
2023-01-26T05:57:40.927Z,6.53
2023-01-26T06:00:12.848Z,7.07
2023-01-26T06:02:41.692Z,6.47
2023-01-26T06:05:11.472Z,7.03
2023-01-26T06:07:39.978Z,7.53
2023-01-26T06:10:10.501Z,7.22
2023-01-26T06:12:43.077Z,6.82
2023-01-26T06:15:13.581Z,7.20
2023-01-26T06:17:42.437Z,7.18
2023-01-26T06:20:13.775Z,7.20
2023-01-26T06:22:42.785Z,6.82
2023-01-26T06:25:11.652Z,7.38
2023-01-26T06:27:42.737Z,6.25
2023-01-26T06:30:13.186Z,7.57
2023-01-26T06:32:42.038Z,7.07
2023-01-26T06:35:11.212Z,7.28
2023-01-26T06:37:40.025Z,6.78
2023-01-26T06:40:10.822Z,7.55
2023-01-26T06:42:40.913Z,6.95
2023-01-26T06:45:10.972Z,6.78
2023-01-26T06:47:39.606Z,6.90
2023-01-26T06:50:10.074Z,7.78
2023-01-26T06:52:39.941Z,7.88
2023-01-26T06:55:18.021Z,7.82
2023-01-26T06:57:48.009Z,7.30
2023-01-26T07:00:17.857Z,7.18
2023-01-26T07:02:46.651Z,7.05
2023-01-26T07:05:15.256Z,8.32
2023-01-26T07:07:44.563Z,8.77
2023-01-26T07:10:13.583Z,11.85
2023-01-26T07:12:42.996Z,11.38
2023-01-26T07:15:13.969Z,10.05
2023-01-26T07:17:42.703Z,11.68
2023-01-26T07:20:12.957Z,10.25
2023-01-26T07:22:41.858Z,11.15
2023-01-26T07:25:10.849Z,11.85
2023-01-26T07:27:39.700Z,11.40
2023-01-26T07:30:10.740Z,11.40
2023-01-26T07:32:40.952Z,10.82
2023-01-26T07:35:10.332Z,10.70
2023-01-26T07:37:38.973Z,10.02
2023-01-26T07:40:10.176Z,10.40
2023-01-26T07:42:39.171Z,11.23
2023-01-26T07:45:09.310Z,10.93
2023-01-26T07:47:38.314Z,11.18
2023-01-26T07:50:10.528Z,10.85
2023-01-26T07:52:39.213Z,9.57
2023-01-26T07:55:08.953Z,10.45
2023-01-26T07:57:37.601Z,10.00
2023-01-26T08:00:07.829Z,10.38
2023-01-26T08:02:36.553Z,9.30
2023-01-26T08:05:05.575Z,10.32
2023-01-26T08:07:35.663Z,10.52
2023-01-26T08:10:04.567Z,10.23
2023-01-26T08:12:33.960Z,9.88
2023-01-26T08:15:04.452Z,9.80
2023-01-26T08:17:33.934Z,10.02
2023-01-26T08:20:02.504Z,10.20
2023-01-26T08:22:31.207Z,9.73
2023-01-26T08:25:01.100Z,10.43
2023-01-26T08:27:29.739Z,10.68
2023-01-26T08:30:00.034Z,10.40
2023-01-26T08:32:30.485Z,10.38
2023-01-26T08:34:59.372Z,10.38
2023-01-26T08:37:27.937Z,9.85
2023-01-26T08:39:56.489Z,9.85
2023-01-26T08:42:26.435Z,9.68
2023-01-26T08:44:55.032Z,10.32
2023-01-26T08:47:23.600Z,9.63
2023-01-26T08:49:52.410Z,9.90
2023-01-26T08:52:21.680Z,9.55
2023-01-26T08:54:50.479Z,9.50
2023-01-26T08:57:19.060Z,10.15
2023-01-26T08:59:49.107Z,9.55
2023-01-26T09:02:17.676Z,9.70
2023-01-26T09:04:46.498Z,9.85
2023-01-26T09:07:15.072Z,9.80
2023-01-26T09:09:43.836Z,9.75
2023-01-26T09:12:12.611Z,9.43
2023-01-26T09:14:41.436Z,9.27
2023-01-26T09:17:11.394Z,9.95
2023-01-26T09:19:40.287Z,9.35
2023-01-26T09:22:08.915Z,9.48
2023-01-26T09:24:37.731Z,9.68
2023-01-26T09:27:06.379Z,10.10
2023-01-26T09:29:34.915Z,9.63
2023-01-26T09:32:03.527Z,9.90
2023-01-26T09:34:33.729Z,10.20
2023-01-26T09:37:02.497Z,9.70
2023-01-26T09:39:31.082Z,9.13
2023-01-26T09:42:18.957Z,9.77
2023-01-26T09:44:51.367Z,8.65
2023-01-26T09:47:27.096Z,10.23
2023-01-26T09:50:02.466Z,9.93
2023-01-26T09:52:33.973Z,9.23
2023-01-26T09:55:04.966Z,9.38
2023-01-26T09:57:37.918Z,9.57
2023-01-26T10:00:11.488Z,9.88
2023-01-26T10:02:50.772Z,9.27
2023-01-26T10:05:26.576Z,9.60
2023-01-26T10:07:55.452Z,9.90
2023-01-26T10:10:28.053Z,9.82
2023-01-26T10:12:56.744Z,9.60
2023-01-26T10:15:32.017Z,10.00
2023-01-26T10:18:03.589Z,9.35
2023-01-26T10:20:35.469Z,9.57
2023-01-26T10:23:06.941Z,9.32
2023-01-26T10:25:37.232Z,10.05
2023-01-26T10:28:14.131Z,9.88
2023-01-26T10:30:43.365Z,9.80
2023-01-26T10:33:17.045Z,9.77
2023-01-26T10:35:47.831Z,10.25
2023-01-26T10:38:45.658Z,8.77
2023-01-26T10:41:26.989Z,9.25
2023-01-26T10:43:57.852Z,9.13
2023-01-26T10:46:32.492Z,9.27
2023-01-26T10:49:02.822Z,9.40
2023-01-26T10:51:34.429Z,9.60
2023-01-26T10:54:20.684Z,8.95
2023-01-26T10:56:52.126Z,9.02
2023-01-26T10:59:30.827Z,9.10
2023-01-26T11:02:01.920Z,9.82
2023-01-26T11:04:30.906Z,10.27
2023-01-26T11:07:26.430Z,9.35
2023-01-26T11:09:55.128Z,9.02
2023-01-26T11:12:26.489Z,9.50
2023-01-26T11:15:06.160Z,9.80
2023-01-26T11:17:38.557Z,9.45
2023-01-26T11:20:22.363Z,9.77
2023-01-26T11:22:56.104Z,9.27
2023-01-26T11:25:26.566Z,9.57
2023-01-26T11:28:06.639Z,10.52
2023-01-26T11:30:46.155Z,9.88
2023-01-26T11:33:22.098Z,9.70
2023-01-26T11:35:55.390Z,10.60
2023-01-26T11:38:33.731Z,10.80
2023-01-26T11:41:15.468Z,10.40
2023-01-26T11:44:36.922Z,10.75
2023-01-26T11:47:35.722Z,10.70
2023-01-26T11:50:23.931Z,10.35
2023-01-26T11:53:03.685Z,9.95
2023-01-26T11:55:44.672Z,9.82
2023-01-26T11:58:25.057Z,10.65
2023-01-26T12:00:55.828Z,10.18
2023-01-26T12:03:27.229Z,9.90
2023-01-26T12:05:58.633Z,9.82
2023-01-26T12:08:29.412Z,9.68
2023-01-26T12:11:22.868Z,10.23
2023-01-26T12:14:02.617Z,9.52
2023-01-26T12:16:39.427Z,9.38
2023-01-26T12:19:14.497Z,9.70
2023-01-26T12:21:45.682Z,9.40
2023-01-26T12:24:48.513Z,9.70
2023-01-26T12:27:17.647Z,10.25
2023-01-26T12:29:51.092Z,9.40
2023-01-26T12:32:20.121Z,9.45
2023-01-26T12:34:49.343Z,9.82
2023-01-26T12:37:39.949Z,9.63
2023-01-26T12:40:17.841Z,9.10
2023-01-26T12:42:50.728Z,9.88
2023-01-26T12:45:21.892Z,9.80
2023-01-26T12:47:52.089Z,10.75
2023-01-26T12:50:28.237Z,8.90
2023-01-26T12:52:59.156Z,9.90
2023-01-26T12:55:30.304Z,9.27
2023-01-26T12:58:03.901Z,9.75
2023-01-26T13:00:34.279Z,9.90
2023-01-26T13:03:05.640Z,9.60
2023-01-26T13:05:35.263Z,9.90
2023-01-26T13:08:41.231Z,9.43
2023-01-26T13:11:10.968Z,9.57
2023-01-26T13:16:36.584Z,9.43
2023-01-26T13:19:05.477Z,10.23
2023-01-26T13:21:44.907Z,11.35
2023-01-26T13:24:50.308Z,9.80
2023-01-26T13:27:33.395Z,10.73
2023-01-26T13:30:02.276Z,9.95
2023-01-26T13:33:13.355Z,10.25
2023-01-26T13:35:42.035Z,10.05
2023-01-26T13:38:20.353Z,10.07
2023-01-26T13:40:50.840Z,9.88
2023-01-26T13:43:34.443Z,10.02
2023-01-26T13:46:16.723Z,10.00
2023-01-26T13:48:48.464Z,9.98
2023-01-26T13:51:21.712Z,10.13
2023-01-26T13:53:59.282Z,9.70
2023-01-26T13:56:30.935Z,10.48
2023-01-26T13:59:11.536Z,9.63
2023-01-26T14:01:45.192Z,10.13
2023-01-26T14:04:21.387Z,10.45
2023-01-26T14:06:54.195Z,9.82
2023-01-26T14:09:22.774Z,10.10
2023-01-26T14:12:00.187Z,9.75
2023-01-26T14:14:30.477Z,9.82
2023-01-26T14:16:59.884Z,9.70
2023-01-26T14:19:30.286Z,9.70
2023-01-26T14:22:00.798Z,9.40
2023-01-26T14:24:34.055Z,9.77
2023-01-26T14:27:03.472Z,9.52
2023-01-26T14:29:32.017Z,10.52
2023-01-26T14:32:01.019Z,9.30
2023-01-26T14:34:32.026Z,9.20
2023-01-26T14:37:08.387Z,9.82
2023-01-26T14:39:37.146Z,9.65
2023-01-26T14:42:05.838Z,9.15
2023-01-26T14:44:34.424Z,9.68
2023-01-26T14:47:05.070Z,10.13
2023-01-26T14:49:44.054Z,9.43
2023-01-26T14:52:25.079Z,9.57
2023-01-26T14:54:54.577Z,9.65
2023-01-26T14:57:24.810Z,10.45
2023-01-26T14:59:55.379Z,9.48
2023-01-26T15:02:25.971Z,9.60
2023-01-26T15:04:58.398Z,10.32
2023-01-26T15:07:45.972Z,9.13
2023-01-26T15:10:36.300Z,9.95
2023-01-26T15:13:08.545Z,9.90
2023-01-26T15:15:38.971Z,9.77
2023-01-26T15:18:19.126Z,9.88
2023-01-26T15:21:00.596Z,10.02
2023-01-26T15:23:31.150Z,10.32
2023-01-26T15:26:06.850Z,9.93
2023-01-26T15:28:35.828Z,10.57
2023-01-26T15:31:04.542Z,10.68
2023-01-26T15:33:50.816Z,10.07
2023-01-26T15:36:29.724Z,9.57
2023-01-26T15:39:04.909Z,9.48
2023-01-26T15:41:33.621Z,10.38
2023-01-26T15:44:02.368Z,10.30
2023-01-26T15:46:31.572Z,9.80
2023-01-26T15:49:00.464Z,10.13
2023-01-26T15:51:30.438Z,10.05
2023-01-26T15:53:58.990Z,10.48
2023-01-26T15:56:28.012Z,10.38
2023-01-26T15:58:56.658Z,9.52
2023-01-26T16:01:25.271Z,9.65
2023-01-26T16:03:54.006Z,9.35
2023-01-26T16:06:26.587Z,10.00
2023-01-26T16:08:56.645Z,10.63
2023-01-26T16:11:28.017Z,10.23
2023-01-26T16:14:03.309Z,10.27
2023-01-26T16:16:33.037Z,9.95
2023-01-26T16:19:01.886Z,9.75
2023-01-26T16:21:33.291Z,10.20
2023-01-26T16:24:03.644Z,9.73
2023-01-26T16:26:32.532Z,10.38
2023-01-26T16:29:01.186Z,10.15
2023-01-26T16:31:31.547Z,11.13
2023-01-26T16:34:01.147Z,10.68
2023-01-26T16:36:30.237Z,9.90
2023-01-26T16:38:58.806Z,10.35
2023-01-26T16:41:29.803Z,10.55
2023-01-26T16:43:59.885Z,10.77
2023-01-26T16:46:28.913Z,10.68
2023-01-26T16:48:57.916Z,10.77
2023-01-26T16:51:28.070Z,10.77
2023-01-26T16:53:57.072Z,10.57
2023-01-26T16:56:26.119Z,10.45
2023-01-26T16:58:56.359Z,10.23
2023-01-26T17:01:28.553Z,10.73
2023-01-26T17:04:01.552Z,11.10
2023-01-26T17:06:30.407Z,11.27
2023-01-26T17:08:59.079Z,11.35
2023-01-26T17:11:28.867Z,10.93
2023-01-26T17:13:59.373Z,11.43
2023-01-26T17:16:31.784Z,12.75
2023-01-26T17:19:00.520Z,21.17
2023-01-26T17:21:29.282Z,16.15
2023-01-26T17:23:59.040Z,16.65
2023-01-26T17:26:27.720Z,14.73
2023-01-26T17:28:57.983Z,19.10
2023-01-26T17:31:26.821Z,18.70
2023-01-26T17:33:56.325Z,17.55
2023-01-26T17:36:24.977Z,15.77
2023-01-26T17:38:53.726Z,16.63
2023-01-26T17:41:22.614Z,15.65
2023-01-26T17:43:51.420Z,16.15
2023-01-26T17:46:22.039Z,14.88
2023-01-26T17:48:51.074Z,16.35
2023-01-26T17:51:21.165Z,16.60
2023-01-26T17:53:50.650Z,15.13
2023-01-26T17:56:20.467Z,15.80
2023-01-26T17:58:49.757Z,15.68
2023-01-26T18:01:18.501Z,15.77
2023-01-26T18:03:48.587Z,14.75
2023-01-26T18:06:17.334Z,14.82
2023-01-26T18:08:46.205Z,16.50
2023-01-26T18:11:16.014Z,14.82
2023-01-26T18:13:44.734Z,14.88
2023-01-26T18:16:16.219Z,14.60
2023-01-26T18:18:44.981Z,15.35
2023-01-26T18:21:17.122Z,13.68
2023-01-26T18:23:47.296Z,13.88
2023-01-26T18:26:15.994Z,13.40
2023-01-26T18:28:44.787Z,14.02
2023-01-26T18:31:14.492Z,13.90
2023-01-26T18:33:43.121Z,13.70
2023-01-26T18:36:14.799Z,14.15
2023-01-26T18:38:44.178Z,13.73
2023-01-26T18:41:12.992Z,14.30
2023-01-26T18:43:41.657Z,14.38
2023-01-26T18:46:10.532Z,13.77
2023-01-26T18:48:39.189Z,14.02
2023-01-26T18:51:08.725Z,14.15
2023-01-26T18:53:40.209Z,12.75
2023-01-26T18:56:10.724Z,13.77
2023-01-26T18:58:40.157Z,13.65
2023-01-26T19:01:12.953Z,14.43
2023-01-26T19:03:42.666Z,13.15
2023-01-26T19:06:11.408Z,13.50
2023-01-26T19:08:41.625Z,13.75
2023-01-26T19:11:10.410Z,14.30
2023-01-26T19:13:42.428Z,13.32
2023-01-26T19:16:11.444Z,14.32
2023-01-26T19:18:40.361Z,14.60
2023-01-26T19:21:09.154Z,13.43
2023-01-26T19:23:42.795Z,13.05
2023-01-26T19:26:12.861Z,12.88
2023-01-26T19:28:42.186Z,13.25
2023-01-26T19:31:11.456Z,12.38
2023-01-26T19:33:40.572Z,13.68
2023-01-26T19:36:10.080Z,13.02
2023-01-26T19:38:41.999Z,13.27
2023-01-26T19:41:10.859Z,12.52
2023-01-26T19:43:39.618Z,12.57
2023-01-26T19:46:11.789Z,13.85
2023-01-26T19:48:40.670Z,13.48
2023-01-26T19:51:12.057Z,13.35
2023-01-26T19:53:43.844Z,12.95
2023-01-26T19:56:16.912Z,12.95
2023-01-26T19:58:45.679Z,12.63
2023-01-26T20:01:14.510Z,13.32
2023-01-26T20:03:43.445Z,12.40
2023-01-26T20:06:16.120Z,12.95
2023-01-26T20:08:46.401Z,12.82
2023-01-26T20:11:15.086Z,12.88
2023-01-26T20:13:44.036Z,13.05
2023-01-26T20:16:13.951Z,13.00
2023-01-26T20:18:42.779Z,12.18
2023-01-26T20:21:11.369Z,13.00
2023-01-26T20:23:53.421Z,12.10
2023-01-26T20:26:24.509Z,12.30
2023-01-26T20:28:54.515Z,12.05
2023-01-26T20:31:25.836Z,12.02
2023-01-26T20:33:54.908Z,12.18
2023-01-26T20:36:25.035Z,12.32
2023-01-26T20:38:54.453Z,11.95
2023-01-26T20:41:26.098Z,11.93
2023-01-26T20:44:01.251Z,12.63
2023-01-26T20:46:32.567Z,11.90
2023-01-26T20:49:01.676Z,12.23
2023-01-26T20:51:31.452Z,11.70
2023-01-26T20:54:00.117Z,11.27
2023-01-26T20:56:30.959Z,11.57
2023-01-26T20:58:59.548Z,12.02
2023-01-26T21:01:28.249Z,12.80
2023-01-26T21:03:57.027Z,12.00
2023-01-26T21:06:26.297Z,11.98
2023-01-26T21:08:56.100Z,11.80
2023-01-26T21:11:25.767Z,11.02
2023-01-26T21:13:56.370Z,11.85
2023-01-26T21:16:25.122Z,11.27
2023-01-26T21:18:54.053Z,11.30
2023-01-26T21:21:24.366Z,11.30
2023-01-26T21:23:52.971Z,10.98
2023-01-26T21:26:23.083Z,11.65
2023-01-26T21:28:52.889Z,11.32
2023-01-26T21:31:23.638Z,11.07
2023-01-26T21:33:52.529Z,10.75
2023-01-26T21:36:22.213Z,10.65
2023-01-26T21:38:52.182Z,11.40
2023-01-26T21:41:39.855Z,9.73
2023-01-26T21:44:10.039Z,11.35
2023-01-26T21:46:40.345Z,10.52
2023-01-26T21:49:09.411Z,10.50
2023-01-26T21:51:55.711Z,10.63
2023-01-26T21:54:24.506Z,10.68
2023-01-26T21:56:53.089Z,11.23
2023-01-26T21:59:20.719Z,10.30
2023-01-26T22:01:52.031Z,11.15
2023-01-26T22:04:22.421Z,10.25
2023-01-26T22:06:52.231Z,10.70
2023-01-26T22:09:21.401Z,10.90
2023-01-26T22:11:50.733Z,10.80
2023-01-26T22:14:21.704Z,9.93
2023-01-26T22:16:51.916Z,10.13
2023-01-26T22:19:20.591Z,9.85
2023-01-26T22:21:49.099Z,11.00
2023-01-26T22:24:18.118Z,10.27
2023-01-26T22:26:46.749Z,10.07
2023-01-26T22:29:15.299Z,9.55
2023-01-26T22:31:43.951Z,10.30
2023-01-26T22:34:13.978Z,10.05
2023-01-26T22:36:42.627Z,10.02
2023-01-26T22:39:12.255Z,10.18
2023-01-26T22:41:40.997Z,9.77
2023-01-26T22:44:09.580Z,9.70
2023-01-26T22:46:38.191Z,9.85
2023-01-26T22:49:06.897Z,10.23
2023-01-26T22:51:37.506Z,10.13
2023-01-26T22:54:08.266Z,10.07
2023-01-26T22:56:37.167Z,9.95
2023-01-26T22:59:05.883Z,10.18
2023-01-26T23:01:34.445Z,10.07
2023-01-26T23:04:03.197Z,9.98
2023-01-26T23:06:31.862Z,10.25
2023-01-26T23:09:04.778Z,10.18
2023-01-26T23:11:33.522Z,9.82
2023-01-26T23:14:02.109Z,9.95
2023-01-26T23:16:30.696Z,9.77
2023-01-26T23:18:59.573Z,10.45
2023-01-26T23:21:28.535Z,10.07
2023-01-26T23:23:57.131Z,10.25
2023-01-26T23:26:27.289Z,10.50
2023-01-26T23:28:55.777Z,11.15
2023-01-26T23:31:24.561Z,10.35
2023-01-26T23:33:53.212Z,10.13
2023-01-26T23:36:21.935Z,10.70
2023-01-26T23:38:50.577Z,9.70
2023-01-26T23:41:19.570Z,10.75
2023-01-26T23:43:49.447Z,9.73
2023-01-26T23:46:18.038Z,10.50
2023-01-26T23:48:46.633Z,10.40
2023-01-26T23:51:16.492Z,10.10
2023-01-26T23:53:45.073Z,10.18
2023-01-26T23:56:16.955Z,11.07
2023-01-26T23:58:45.909Z,10.68
